Time;durP1;ratioP1;P1;durP2;ratioP2;P2;SDS_P1;SDS_P2;PMS_P1;PMS_P2;Temp;Humidity;BMP_temperature;BMP_pressure;BME280_temperature;BME280_humidity;BME280_pressure;Samples;Min_cycle;Max_cycle;Signal;HPM_P1;HPM_P2
2023/07/10 14:46:33;;;;;;;3.47;2.00;;;;;;;26.72;44.34;100016.25;1766752;80;28309;-53
2023/07/10 14:49:42;;;;;;;5.47;2.25;;;;;;;26.69;44.31;100026.08;1720781;83;21783;-52
2023/07/10 14:52:50;;;;;;;2.17;1.70;;;;;;;26.72;44.41;100025.50;1717233;83;21271;-52
2023/07/10 14:56:01;;;;;;;3.37;1.85;;;;;;;26.64;44.40;100027.51;1746588;82;21223;-53
2023/07/10 14:59:06;;;;;;;4.00;1.72;;;;;;;26.58;44.44;100025.83;1714838;83;21235;-54
2023/07/10 15:02:16;;;;;;;3.85;2.27;;;;;;;26.48;44.36;100033.74;1770873;81;21445;-54
2023/07/10 15:05:24;;;;;;;2.40;1.80;;;;;;;26.32;44.30;100044.76;1764937;81;21753;-55
2023/07/10 15:08:38;;;;;;;2.55;1.98;;;;;;;26.05;44.17;100049.91;1750485;81;21204;-52
2023/07/10 15:11:43;;;;;;;5.00;1.72;;;;;;;25.81;44.17;100047.43;1765344;81;21196;-53
2023/07/10 15:14:52;;;;;;;2.65;1.82;;;;;;;25.70;44.29;100050.53;1781124;79;21279;-52
2023/07/10 15:17:58;;;;;;;4.37;2.00;;;;;;;25.61;44.33;100050.83;1765268;81;21180;-52
2023/07/10 15:21:05;;;;;;;3.40;2.37;;;;;;;25.49;44.40;100053.06;1780070;80;21903;-52
2023/07/10 15:24:12;;;;;;;2.72;1.80;;;;;;;25.40;44.51;100055.61;1751531;81;21371;-52
2023/07/10 15:27:17;;;;;;;2.87;2.08;;;;;;;25.33;44.58;100055.00;1695011;82;21208;-53
2023/07/10 15:30:23;;;;;;;2.83;2.00;;;;;;;25.30;44.72;100067.33;1723383;82;21284;-53
2023/07/10 15:33:29;;;;;;;2.72;2.30;;;;;;;25.24;44.85;100064.24;1728968;83;21383;-53
2023/07/10 15:36:35;;;;;;;4.22;1.87;;;;;;;25.15;44.86;100058.34;1710985;83;21771;-53
2023/07/10 15:39:42;;;;;;;6.90;5.20;;;;;;;25.08;44.93;100061.14;1701646;83;21383;-52
2023/07/10 15:42:50;;;;;;;8.08;7.22;;;;;;;24.99;45.09;100064.48;1702473;83;21359;-51
2023/07/10 15:45:57;;;;;;;4.40;2.65;;;;;;;24.95;45.24;100061.98;1708215;81;21219;-52
2023/07/10 15:49:05;;;;;;;3.05;2.10;;;;;;;24.88;45.38;100062.79;1767289;79;21212;-54
2023/07/10 15:52:10;;;;;;;6.92;2.98;;;;;;;24.81;45.51;100058.03;1760440;80;21674;-52
2023/07/10 15:55:35;;;;;;;3.12;2.42;;;;;;;24.81;45.75;100054.37;1759163;81;21193;-52
2023/07/10 15:58:40;;;;;;;4.10;2.17;;;;;;;24.82;45.88;100049.05;1759213;81;21188;-53
2023/07/10 16:01:48;;;;;;;3.90;1.95;;;;;;;24.84;46.00;100051.02;1759697;81;21196;-52
2023/07/10 16:04:55;;;;;;;3.37;2.52;;;;;;;24.87;46.06;100050.47;1781433;79;21211;-52
2023/07/10 16:08:02;;;;;;;4.03;2.27;;;;;;;24.97;46.25;100049.91;1782586;80;21283;-53
2023/07/10 16:11:18;;;;;;;5.17;2.62;;;;;;;25.10;46.27;100049.11;1781670;80;21692;-53
2023/07/10 16:14:28;;;;;;;3.22;2.10;;;;;;;25.23;46.22;100054.98;1780063;79;22138;-52
2023/07/10 16:17:36;;;;;;;11.00;7.30;;;;;;;25.33;46.21;100059.75;1782420;79;21165;-53
2023/07/10 16:20:43;;;;;;;13.18;8.75;;;;;;;25.31;46.10;100066.22;1772100;80;21197;-53
2023/07/10 16:23:50;;;;;;;24.12;15.58;;;;;;;25.18;46.01;100073.19;1759049;81;21197;-52
2023/07/10 16:26:58;;;;;;;25.95;20.27;;;;;;;24.98;45.94;100069.82;1759305;81;21755;-52
2023/07/10 16:30:06;;;;;;;21.15;14.05;;;;;;;24.84;45.98;100065.88;1759727;81;21236;-52
2023/07/10 16:33:25;;;;;;;12.68;7.12;;;;;;;24.76;46.01;100073.41;1758961;81;21193;-52
2023/07/10 16:36:32;;;;;;;6.17;4.50;;;;;;;24.68;45.99;100081.50;1758808;80;21769;-53
2023/07/10 16:39:39;;;;;;;7.50;3.00;;;;;;;24.56;46.08;100092.89;1758238;81;21185;-52
2023/07/10 16:42:45;;;;;;;3.62;2.42;;;;;;;24.51;46.13;100087.84;1758905;81;21523;-52
2023/07/10 16:45:51;;;;;;;7.35;4.83;;;;;;;24.41;46.15;100089.19;1745123;81;21201;-53
2023/07/10 16:48:58;;;;;;;10.15;6.40;;;;;;;24.28;46.20;100075.69;1729671;83;21828;-52
2023/07/10 16:52:05;;;;;;;7.40;2.45;;;;;;;24.12;46.26;100092.96;1730287;83;21337;-55
2023/07/10 16:55:12;;;;;;;5.87;2.10;;;;;;;23.94;46.35;100102.33;1729914;83;21232;-52
2023/07/10 16:58:19;;;;;;;3.45;2.40;;;;;;;23.76;46.50;100098.56;1733369;82;21910;-52
2023/07/10 17:01:34;;;;;;;3.40;2.65;;;;;;;23.55;46.56;100094.77;1729741;83;21823;-56
2023/07/10 17:04:40;;;;;;;3.15;2.40;;;;;;;23.39;46.72;100106.92;1729571;83;21263;-55
2023/07/10 17:07:49;;;;;;;7.50;3.00;;;;;;;23.20;46.89;100115.37;1755247;81;21209;-53
2023/07/10 17:10:59;;;;;;;6.72;2.60;;;;;;;23.05;47.06;100128.65;1752794;80;21719;-54
2023/07/10 17:14:05;;;;;;;4.75;2.55;;;;;;;22.90;47.24;100127.61;1752677;80;21910;-54
2023/07/10 17:17:25;;;;;;;5.58;2.22;;;;;;;22.77;47.49;100123.86;1751074;81;21256;-53
2023/07/10 17:20:32;;;;;;;4.72;2.00;;;;;;;22.67;47.68;100119.00;1755206;81;21633;-55
2023/07/10 17:23:41;;;;;;;3.52;1.85;;;;;;;22.53;47.86;100111.28;1756051;81;21181;-54
2023/07/10 17:26:48;;;;;;;3.27;2.00;;;;;;;22.41;47.97;100114.70;1754906;81;21730;-56
2023/07/10 17:29:54;;;;;;;3.50;1.60;;;;;;;22.23;47.99;100125.08;1756288;81;21217;-54
2023/07/10 17:33:00;;;;;;;2.58;1.70;;;;;;;22.04;47.91;100135.41;1753121;80;21184;-54
2023/07/10 17:36:05;;;;;;;4.53;1.62;;;;;;;21.83;48.05;100124.50;1753456;81;21216;-54
2023/07/10 17:39:12;;;;;;;2.72;1.90;;;;;;;21.70;48.24;100119.23;1743761;81;21301;-54
2023/07/10 17:42:24;;;;;;;4.00;2.20;;;;;;;21.60;48.37;100118.20;1753031;81;21184;-54
2023/07/10 17:45:29;;;;;;;2.70;1.87;;;;;;;21.50;48.54;100113.31;1751678;81;21185;-54
2023/07/10 17:48:35;;;;;;;4.90;2.08;;;;;;;21.44;48.75;100119.91;1725220;81;21778;-54
2023/07/10 17:51:41;;;;;;;5.85;2.12;;;;;;;21.35;48.84;100108.04;1690555;85;21215;-54
2023/07/10 17:54:47;;;;;;;6.20;1.77;;;;;;;21.26;49.02;100113.73;1705413;83;21801;-54
2023/07/10 17:57:56;;;;;;;2.98;1.70;;;;;;;21.18;49.19;100116.40;1720493;83;21359;-54
2023/07/10 18:01:03;;;;;;;5.85;2.15;;;;;;;21.14;49.38;100122.15;1738115;82;21232;-54
2023/07/10 18:04:09;;;;;;;10.00;2.10;;;;;;;21.06;49.52;100122.56;1718468;83;21216;-54
2023/07/10 18:07:18;;;;;;;4.72;1.90;;;;;;;20.98;49.69;100118.78;1717118;83;21256;-54
2023/07/10 18:10:25;;;;;;;3.52;2.10;;;;;;;20.91;49.80;100128.36;1718812;83;21220;-54
2023/07/10 18:13:40;;;;;;;3.77;2.02;;;;;;;20.81;49.97;100126.22;1736766;82;21626;-54
2023/07/10 18:16:48;;;;;;;3.85;1.98;;;;;;;20.72;50.18;100124.94;1737353;82;21208;-54
2023/07/10 18:19:55;;;;;;;4.37;2.20;;;;;;;20.63;50.39;100122.23;1717539;83;21197;-53
2023/07/10 18:23:01;;;;;;;3.75;2.05;;;;;;;20.55;50.57;100121.25;1708233;84;21350;-54
2023/07/10 18:26:08;;;;;;;7.75;2.40;;;;;;;20.45;50.75;100120.50;1691030;85;21390;-53
2023/07/10 18:29:09;;;;;;;5.40;2.20;;;;;;;20.34;50.99;100117.73;1708246;83;21426;-54
2023/07/10 18:32:23;;;;;;;3.80;2.00;;;;;;;20.26;51.24;100120.90;1690266;85;21426;-53
2023/07/10 18:35:30;;;;;;;4.08;2.25;;;;;;;20.20;51.49;100121.88;1708259;83;21228;-53
2023/07/10 18:38:38;;;;;;;4.15;3.30;;;;;;;20.11;51.68;100124.15;1708176;84;21736;-53
2023/07/10 18:41:44;;;;;;;6.17;4.50;;;;;;;20.02;51.91;100111.73;1691110;85;21422;-54
2023/07/10 18:44:54;;;;;;;8.35;6.37;;;;;;;19.97;52.14;100112.14;1709493;83;21390;-53
2023/07/10 18:48:02;;;;;;;11.97;9.00;;;;;;;19.92;52.37;100121.20;1709091;84;21362;-52
2023/07/10 18:51:11;;;;;;;10.90;6.12;;;;;;;19.86;52.58;100123.58;1707656;83;21406;-53
2023/07/10 18:54:21;;;;;;;4.50;2.70;;;;;;;19.83;52.75;100123.20;1711551;82;21402;-55
2023/07/10 18:57:25;;;;;;;4.33;2.50;;;;;;;19.75;52.89;100119.40;1690234;84;21429;-54
2023/07/10 19:00:33;;;;;;;4.97;2.35;;;;;;;19.68;53.11;100125.07;1690392;84;21405;-54
2023/07/10 19:03:43;;;;;;;4.55;2.35;;;;;;;19.60;53.25;100115.70;1690765;84;21890;-54
2023/07/10 19:06:52;;;;;;;3.40;2.40;;;;;;;19.53;53.43;100118.30;1690840;84;21369;-54
2023/07/10 19:09:58;;;;;;;3.45;2.37;;;;;;;19.48;53.65;100114.01;1690760;84;21357;-54
2023/07/10 19:13:05;;;;;;;10.58;3.22;;;;;;;19.44;53.87;100113.64;1691082;84;21358;-54
2023/07/10 19:16:11;;;;;;;8.08;3.30;;;;;;;19.42;54.15;100114.44;1693675;82;21346;-54
2023/07/10 19:19:24;;;;;;;5.20;2.65;;;;;;;19.39;54.35;100113.53;1685306;84;21829;-52
2023/07/10 19:22:33;;;;;;;3.92;2.47;;;;;;;19.36;54.52;100107.61;1772877;81;21315;-53
2023/07/10 19:25:39;;;;;;;3.98;2.52;;;;;;;19.31;54.68;100103.60;1773138;81;21814;-53
2023/07/10 19:28:47;;;;;;;5.10;2.67;;;;;;;19.28;54.82;100109.64;1772888;81;21389;-55
2023/07/10 19:32:03;;;;;;;2.92;2.30;;;;;;;19.22;54.98;100110.56;1773064;81;21334;-53
2023/07/10 19:35:09;;;;;;;4.28;2.70;;;;;;;19.19;55.14;100118.52;1773126;81;21365;-54
2023/07/10 19:38:25;;;;;;;3.62;2.25;;;;;;;19.12;55.25;100109.47;1773177;81;21412;-54
2023/07/10 19:41:32;;;;;;;4.80;2.58;;;;;;;19.05;55.37;100113.73;1773164;81;21338;-53
2023/07/10 19:45:01;;;;;;;9.68;4.10;;;;;;;18.97;55.55;100119.61;1772659;81;21945;-53
2023/07/10 19:48:07;;;;;;;5.35;3.17;;;;;;;18.90;55.74;100118.03;1772695;81;21966;-53
2023/07/10 19:51:14;;;;;;;7.10;2.70;;;;;;;18.81;55.94;100113.34;1774763;80;21219;-53
2023/07/10 19:54:23;;;;;;;4.50;2.72;;;;;;;18.74;56.08;100118.69;1775282;81;21211;-53
2023/07/10 19:57:38;;;;;;;10.28;2.83;;;;;;;18.67;56.29;100124.85;1775435;81;21779;-54
2023/07/10 20:00:44;;;;;;;3.65;2.50;;;;;;;18.61;56.46;100122.49;1754985;81;21357;-54
2023/07/10 20:03:51;;;;;;;2.65;2.37;;;;;;;18.54;56.62;100116.70;1775917;81;21274;-53
2023/07/10 20:07:01;;;;;;;3.75;2.52;;;;;;;18.49;56.84;100120.19;1776015;81;21746;-54
2023/07/10 20:10:08;;;;;;;3.67;2.58;;;;;;;18.45;57.01;100116.20;1776186;81;21224;-53
2023/07/10 20:13:22;;;;;;;4.47;3.40;;;;;;;18.38;57.13;100115.42;1783537;79;21184;-53
2023/07/10 20:16:33;;;;;;;3.65;2.67;;;;;;;18.32;57.32;100113.56;1805223;79;21188;-54
2023/07/10 20:19:39;;;;;;;4.33;2.58;;;;;;;18.28;57.46;100113.73;1805089;79;21172;-53
2023/07/10 20:22:46;;;;;;;3.58;2.55;;;;;;;18.23;57.60;100113.58;1805192;79;21165;-53
2023/07/10 20:25:55;;;;;;;5.25;2.30;;;;;;;18.17;57.76;100110.31;1805187;79;21188;-53
2023/07/10 20:29:02;;;;;;;3.98;2.50;;;;;;;18.12;57.93;100114.87;1805169;79;21200;-53
2023/07/10 20:32:08;;;;;;;5.17;2.90;;;;;;;18.08;58.08;100108.09;1805114;79;21212;-53
2023/07/10 20:35:15;;;;;;;4.20;2.72;;;;;;;18.02;58.20;100104.34;1805124;79;21188;-54
2023/07/10 20:38:29;;;;;;;3.77;2.37;;;;;;;17.97;58.34;100116.64;1800881;79;21192;-52
2023/07/10 20:41:37;;;;;;;3.83;2.83;;;;;;;17.93;58.51;100120.96;1804512;79;21177;-54
2023/07/10 20:44:41;;;;;;;6.15;3.10;;;;;;;17.89;58.69;100127.48;1773988;79;21195;-54
2023/07/10 20:47:53;;;;;;;5.20;2.90;;;;;;;17.88;58.85;100124.95;1756791;81;21270;-55
2023/07/10 20:50:59;;;;;;;3.70;2.65;;;;;;;17.85;59.00;100123.47;1757067;79;21230;-52
2023/07/10 20:54:06;;;;;;;5.05;2.55;;;;;;;17.80;59.08;100121.09;1743396;82;21400;-54
2023/07/10 20:57:17;;;;;;;4.45;3.00;;;;;;;17.76;59.21;100122.61;1743925;81;21876;-53
2023/07/10 21:00:24;;;;;;;6.92;2.70;;;;;;;17.75;59.39;100122.31;1743911;82;21334;-54
2023/07/10 21:03:34;;;;;;;4.47;2.67;;;;;;;17.73;59.53;100126.70;1681795;84;21339;-54
2023/07/10 21:06:41;;;;;;;3.42;2.40;;;;;;;17.73;59.65;100131.38;1683558;84;21406;-54
2023/07/10 21:09:52;;;;;;;7.37;2.65;;;;;;;17.71;59.78;100134.38;1683586;85;21224;-53
2023/07/10 21:12:59;;;;;;;5.80;2.80;;;;;;;17.70;59.90;100131.30;1698512;84;21749;-52
2023/07/10 21:16:05;;;;;;;5.33;2.75;;;;;;;17.70;60.02;100130.45;1704044;83;21411;-54
2023/07/10 21:19:30;;;;;;;4.12;2.77;;;;;;;17.68;60.15;100135.36;1684472;83;21387;-53
2023/07/10 21:22:37;;;;;;;3.67;2.47;;;;;;;17.66;60.25;100132.81;1683528;85;21864;-54
2023/07/10 21:25:41;;;;;;;4.10;2.80;;;;;;;17.64;60.37;100128.59;1683473;84;21434;-54
2023/07/10 21:28:51;;;;;;;4.80;2.85;;;;;;;17.60;60.45;100128.20;1673209;85;21371;-54
2023/07/10 21:31:57;;;;;;;3.80;2.60;;;;;;;17.55;60.55;100116.13;1686177;83;21336;-54
2023/07/10 21:35:04;;;;;;;3.58;2.52;;;;;;;17.51;60.68;100118.50;1683445;85;21355;-53
2023/07/10 21:38:11;;;;;;;5.15;2.90;;;;;;;17.46;60.84;100111.94;1683473;85;21360;-54
2023/07/10 21:41:25;;;;;;;4.53;2.95;;;;;;;17.42;60.95;100106.00;1683474;85;21394;-54
2023/07/10 21:44:32;;;;;;;4.42;2.90;;;;;;;17.41;61.15;100115.35;1683441;85;21371;-53
2023/07/10 21:47:38;;;;;;;5.22;3.30;;;;;;;17.39;61.28;100105.08;1683493;85;21349;-52
2023/07/10 21:50:46;;;;;;;4.30;3.08;;;;;;;17.38;61.36;100101.97;1683433;85;21371;-54
2023/07/10 21:53:53;;;;;;;4.62;3.02;;;;;;;17.33;61.37;100095.44;1678446;81;21354;-52
2023/07/10 21:57:01;;;;;;;4.97;3.35;;;;;;;17.30;61.48;100100.05;1693136;85;21344;-54
2023/07/10 22:00:08;;;;;;;4.37;3.33;;;;;;;17.27;61.60;100093.55;1693155;83;21403;-53
2023/07/10 22:03:39;;;;;;;3.92;3.00;;;;;;;17.24;61.74;100101.78;1693181;85;21351;-53
2023/07/10 22:06:49;;;;;;;5.15;3.27;;;;;;;17.22;61.79;100103.09;1693165;85;21359;-52
2023/07/10 22:09:56;;;;;;;7.50;3.15;;;;;;;17.16;61.89;100112.27;1659681;85;21781;-54
2023/07/10 22:13:02;;;;;;;4.17;2.95;;;;;;;17.10;62.06;100110.41;1693139;83;21362;-53
2023/07/10 22:16:09;;;;;;;5.42;3.50;;;;;;;17.07;62.15;100105.33;1693183;85;21351;-54
2023/07/10 22:19:16;;;;;;;6.95;3.50;;;;;;;17.01;62.27;100097.41;1693088;85;21402;-53
2023/07/10 22:22:21;;;;;;;5.37;3.10;;;;;;;16.96;62.39;100106.05;1693165;85;21495;-52
2023/07/10 22:25:27;;;;;;;4.37;3.22;;;;;;;16.91;62.50;100101.72;1693164;85;21265;-53
2023/07/10 22:28:39;;;;;;;5.85;3.25;;;;;;;16.87;62.70;100097.72;1693145;85;21355;-53
2023/07/10 22:31:47;;;;;;;5.50;3.77;;;;;;;16.87;62.87;100100.48;1693122;85;21356;-52
2023/07/10 22:34:54;;;;;;;8.80;3.52;;;;;;;16.86;63.03;100105.69;1693100;85;21383;-52
2023/07/10 22:38:00;;;;;;;4.90;3.60;;;;;;;16.83;63.11;100100.08;1693082;85;21867;-51
2023/07/10 22:41:23;;;;;;;4.45;2.92;;;;;;;16.81;63.24;100100.00;1693150;85;21422;-53
2023/07/10 22:44:29;;;;;;;4.95;3.08;;;;;;;16.78;63.33;100103.19;1693155;85;21358;-51
2023/07/10 22:47:36;;;;;;;5.60;3.77;;;;;;;16.76;63.46;100104.79;1693058;85;21406;-53
2023/07/10 22:50:43;;;;;;;5.12;3.40;;;;;;;16.74;63.55;100106.95;1693157;85;21459;-52
2023/07/10 22:53:49;;;;;;;4.60;3.17;;;;;;;16.73;63.72;100108.56;1701327;82;21350;-53
2023/07/10 22:56:55;;;;;;;6.33;3.33;;;;;;;16.70;63.83;100115.36;1726679;83;21461;-53
2023/07/10 23:00:01;;;;;;;4.47;3.45;;;;;;;16.68;63.98;100116.66;1726721;83;21441;-54
2023/07/10 23:03:07;;;;;;;4.40;3.55;;;;;;;16.67;64.13;100108.04;1726655;83;21351;-53
2023/07/10 23:06:15;;;;;;;4.62;3.27;;;;;;;16.68;64.26;100113.34;1726705;83;21887;-53
2023/07/10 23:09:23;;;;;;;4.75;3.10;;;;;;;16.69;64.38;100120.59;1726695;83;21389;-53
2023/07/10 23:12:28;;;;;;;6.87;3.85;;;;;;;16.70;64.50;100123.66;1726709;83;21941;-53
2023/07/10 23:15:33;;;;;;;5.47;4.00;;;;;;;16.71;64.60;100118.98;1757516;81;21313;-53
2023/07/10 23:18:44;;;;;;;5.33;3.87;;;;;;;16.73;64.72;100130.67;1757520;81;21202;-50
2023/07/10 23:21:50;;;;;;;5.10;3.50;;;;;;;16.75;64.81;100129.89;1757471;81;21210;-54
2023/07/10 23:24:50;;;;;;;7.00;3.55;;;;;;;16.73;64.83;100132.05;1757467;81;21238;-53
2023/07/10 23:27:45;;;;;;;4.40;3.55;;;;;;;16.76;64.92;100131.61;1757464;81;21250;-51
2023/07/10 23:30:32;;;;;;;5.25;3.58;;;;;;;16.76;64.99;100135.76;1757418;81;21230;-52
2023/07/10 23:33:27;;;;;;;4.72;3.70;;;;;;;16.78;65.15;100136.36;1757440;81;21707;-51
2023/07/10 23:36:34;;;;;;;6.72;3.62;;;;;;;16.80;65.26;100135.61;1757385;81;21203;-53
2023/07/10 23:39:40;;;;;;;6.67;3.62;;;;;;;16.81;65.32;100130.41;1757482;81;21207;-52
2023/07/10 23:42:49;;;;;;;4.35;3.17;;;;;;;16.85;65.43;100128.89;1736248;81;21338;-51
2023/07/10 23:45:56;;;;;;;4.50;3.72;;;;;;;16.87;65.48;100137.81;1757505;81;21223;-54
2023/07/10 23:49:02;;;;;;;7.87;3.85;;;;;;;16.89;65.54;100128.73;1757544;81;21764;-53
2023/07/10 23:52:09;;;;;;;5.55;3.45;;;;;;;16.90;65.63;100127.16;1757552;81;21191;-52
2023/07/10 23:55:17;;;;;;;4.40;3.30;;;;;;;16.92;65.73;100131.09;1752672;80;21235;-52
2023/07/10 23:58:23;;;;;;;4.25;3.12;;;;;;;16.93;65.81;100132.77;1688523;83;21383;-52
